Terminal Aerodrome Forecast
Issued by NWS

Home | Current Version | Previous Version | Text Only | Print | Product List | Glossary On
Versions: 1 2 3 4 5 6 7 8 9 10 11 12 13 14 15 16 17 18 19 20 21 22
000
FTUS43 KILX 171957 AAA
TAFCMI
TAF AMD
KCMI 171957Z 1720/1818 20012KT 1/2SM SN OVC005
     FM172200 24008KT P6SM VCSH BKN010
      TEMPO 1722/1724 3SM -SN OVC007
     FM180100 26008KT P6SM SCT008 BKN060
     FM180700 VRB04KT P6SM FEW250
     FM181400 17012KT P6SM FEW250=

USA.gov is the U.S. government's official web portal to all federal, state and local government web resources and services.